sensor_id;sensor_type;location;lat;lon;timestamp;P1;durP1;ratioP1;P2;durP2;ratioP2
63699;SDS011;49845;47.130;142.766;2023-04-24T00:02:02;4.18;;;2.28;;
63699;SDS011;49845;47.130;142.766;2023-04-24T00:04:34;3.58;;;2.40;;
63699;SDS011;49845;47.130;142.766;2023-04-24T00:07:09;3.58;;;2.15;;
63699;SDS011;49845;47.130;142.766;2023-04-24T00:09:40;2.55;;;2.00;;
63699;SDS011;49845;47.130;142.766;2023-04-24T00:12:11;4.85;;;2.25;;
63699;SDS011;49845;47.130;142.766;2023-04-24T00:14:41;4.15;;;2.55;;
63699;SDS011;49845;47.130;142.766;2023-04-24T00:17:12;4.43;;;2.38;;
63699;SDS011;49845;47.130;142.766;2023-04-24T00:19:42;3.42;;;2.00;;
63699;SDS011;49845;47.130;142.766;2023-04-24T00:22:15;4.43;;;2.10;;
63699;SDS011;49845;47.130;142.766;2023-04-24T00:24:45;3.75;;;2.67;;
63699;SDS011;49845;47.130;142.766;2023-04-24T00:27:16;3.30;;;2.20;;
63699;SDS011;49845;47.130;142.766;2023-04-24T00:29:46;3.75;;;2.30;;
63699;SDS011;49845;47.130;142.766;2023-04-24T00:32:17;3.67;;;2.53;;
63699;SDS011;49845;47.130;142.766;2023-04-24T00:34:48;4.13;;;2.55;;
63699;SDS011;49845;47.130;142.766;2023-04-24T00:37:20;2.80;;;2.20;;
63699;SDS011;49845;47.130;142.766;2023-04-24T00:39:51;2.38;;;2.00;;
63699;SDS011;49845;47.130;142.766;2023-04-24T00:42:22;3.10;;;2.30;;
63699;SDS011;49845;47.130;142.766;2023-04-24T00:44:52;2.63;;;1.92;;
63699;SDS011;49845;47.130;142.766;2023-04-24T00:47:23;2.30;;;2.00;;
63699;SDS011;49845;47.130;142.766;2023-04-24T00:49:54;3.70;;;1.98;;
63699;SDS011;49845;47.130;142.766;2023-04-24T00:52:26;2.88;;;2.28;;
63699;SDS011;49845;47.130;142.766;2023-04-24T00:55:00;2.40;;;2.00;;
63699;SDS011;49845;47.130;142.766;2023-04-24T00:57:30;2.30;;;2.10;;
63699;SDS011;49845;47.130;142.766;2023-04-24T01:00:01;5.80;;;2.08;;
63699;SDS011;49845;47.130;142.766;2023-04-24T01:02:33;3.78;;;2.17;;
63699;SDS011;49845;47.130;142.766;2023-04-24T01:05:04;3.08;;;1.80;;
63699;SDS011;49845;47.130;142.766;2023-04-24T01:07:36;4.40;;;1.77;;
63699;SDS011;49845;47.130;142.766;2023-04-24T01:10:08;2.88;;;1.90;;
63699;SDS011;49845;47.130;142.766;2023-04-24T01:12:39;4.43;;;1.85;;
63699;SDS011;49845;47.130;142.766;2023-04-24T01:15:10;2.08;;;1.88;;
63699;SDS011;49845;47.130;142.766;2023-04-24T01:17:40;3.17;;;1.83;;
63699;SDS011;49845;47.130;142.766;2023-04-24T01:20:11;2.72;;;1.70;;
63699;SDS011;49845;47.130;142.766;2023-04-24T01:22:43;4.50;;;1.80;;
63699;SDS011;49845;47.130;142.766;2023-04-24T01:25:14;3.42;;;2.20;;
63699;SDS011;49845;47.130;142.766;2023-04-24T01:27:45;6.43;;;2.20;;
63699;SDS011;49845;47.130;142.766;2023-04-24T01:30:15;2.13;;;1.92;;
63699;SDS011;49845;47.130;142.766;2023-04-24T01:32:46;1.90;;;1.70;;
63699;SDS011;49845;47.130;142.766;2023-04-24T01:35:17;3.50;;;2.03;;
63699;SDS011;49845;47.130;142.766;2023-04-24T01:37:49;3.90;;;2.05;;
63699;SDS011;49845;47.130;142.766;2023-04-24T01:40:20;1.83;;;1.73;;
63699;SDS011;49845;47.130;142.766;2023-04-24T01:42:51;3.80;;;2.10;;
63699;SDS011;49845;47.130;142.766;2023-04-24T01:45:22;3.03;;;2.00;;
63699;SDS011;49845;47.130;142.766;2023-04-24T01:47:52;2.10;;;1.90;;
63699;SDS011;49845;47.130;142.766;2023-04-24T01:50:23;2.85;;;1.75;;
63699;SDS011;49845;47.130;142.766;2023-04-24T01:52:55;2.20;;;1.75;;
63699;SDS011;49845;47.130;142.766;2023-04-24T01:55:26;1.95;;;1.60;;
63699;SDS011;49845;47.130;142.766;2023-04-24T01:57:57;2.03;;;1.80;;
63699;SDS011;49845;47.130;142.766;2023-04-24T02:00:30;3.85;;;2.20;;
63699;SDS011;49845;47.130;142.766;2023-04-24T02:03:01;3.95;;;2.15;;
63699;SDS011;49845;47.130;142.766;2023-04-24T02:05:32;2.25;;;1.80;;
63699;SDS011;49845;47.130;142.766;2023-04-24T02:08:04;3.65;;;1.80;;
63699;SDS011;49845;47.130;142.766;2023-04-24T02:10:34;2.40;;;1.55;;
63699;SDS011;49845;47.130;142.766;2023-04-24T02:13:05;3.72;;;1.75;;
63699;SDS011;49845;47.130;142.766;2023-04-24T02:15:35;2.28;;;1.80;;
63699;SDS011;49845;47.130;142.766;2023-04-24T02:18:06;4.85;;;1.70;;
63699;SDS011;49845;47.130;142.766;2023-04-24T02:20:36;2.03;;;1.80;;
63699;SDS011;49845;47.130;142.766;2023-04-24T02:23:08;2.20;;;1.95;;
63699;SDS011;49845;47.130;142.766;2023-04-24T02:25:39;2.20;;;1.88;;
63699;SDS011;49845;47.130;142.766;2023-04-24T02:28:10;3.72;;;1.80;;
63699;SDS011;49845;47.130;142.766;2023-04-24T02:30:40;2.60;;;1.83;;
63699;SDS011;49845;47.130;142.766;2023-04-24T02:33:11;2.10;;;1.80;;
63699;SDS011;49845;47.130;142.766;2023-04-24T02:35:41;1.92;;;1.48;;
63699;SDS011;49845;47.130;142.766;2023-04-24T02:38:13;3.95;;;1.67;;
63699;SDS011;49845;47.130;142.766;2023-04-24T02:40:44;1.70;;;1.60;;
63699;SDS011;49845;47.130;142.766;2023-04-24T02:43:16;1.90;;;1.50;;
63699;SDS011;49845;47.130;142.766;2023-04-24T02:45:47;9.20;;;1.65;;
63699;SDS011;49845;47.130;142.766;2023-04-24T02:48:18;3.05;;;1.80;;
63699;SDS011;49845;47.130;142.766;2023-04-24T02:50:50;2.00;;;1.80;;
63699;SDS011;49845;47.130;142.766;2023-04-24T02:53:22;3.97;;;1.80;;
63699;SDS011;49845;47.130;142.766;2023-04-24T02:55:53;3.40;;;1.40;;
63699;SDS011;49845;47.130;142.766;2023-04-24T02:58:26;1.52;;;1.42;;
63699;SDS011;49845;47.130;142.766;2023-04-24T03:00:57;4.45;;;1.80;;
63699;SDS011;49845;47.130;142.766;2023-04-24T03:03:28;2.65;;;1.92;;
63699;SDS011;49845;47.130;142.766;2023-04-24T03:05:59;1.88;;;1.50;;
63699;SDS011;49845;47.130;142.766;2023-04-24T03:08:32;2.53;;;1.65;;
63699;SDS011;49845;47.130;142.766;2023-04-24T03:11:03;3.90;;;1.70;;
63699;SDS011;49845;47.130;142.766;2023-04-24T03:13:34;1.50;;;1.40;;
63699;SDS011;49845;47.130;142.766;2023-04-24T03:16:05;3.72;;;1.67;;
63699;SDS011;49845;47.130;142.766;2023-04-24T03:18:36;2.85;;;1.48;;
63699;SDS011;49845;47.130;142.766;2023-04-24T03:21:07;2.38;;;1.65;;
63699;SDS011;49845;47.130;142.766;2023-04-24T03:23:39;3.67;;;1.73;;
63699;SDS011;49845;47.130;142.766;2023-04-24T03:26:10;1.73;;;1.63;;
63699;SDS011;49845;47.130;142.766;2023-04-24T03:28:41;1.77;;;1.50;;
63699;SDS011;49845;47.130;142.766;2023-04-24T03:31:12;2.72;;;1.48;;
63699;SDS011;49845;47.130;142.766;2023-04-24T03:33:43;2.30;;;1.52;;
63699;SDS011;49845;47.130;142.766;2023-04-24T03:36:13;5.15;;;1.65;;
63699;SDS011;49845;47.130;142.766;2023-04-24T03:38:45;1.75;;;1.58;;
63699;SDS011;49845;47.130;142.766;2023-04-24T03:41:16;2.50;;;1.77;;
63699;SDS011;49845;47.130;142.766;2023-04-24T03:43:46;1.85;;;1.60;;
63699;SDS011;49845;47.130;142.766;2023-04-24T03:46:17;3.08;;;2.10;;
63699;SDS011;49845;47.130;142.766;2023-04-24T03:48:47;2.20;;;1.52;;
63699;SDS011;49845;47.130;142.766;2023-04-24T03:51:18;2.63;;;1.55;;
63699;SDS011;49845;47.130;142.766;2023-04-24T03:53:51;2.50;;;2.10;;
63699;SDS011;49845;47.130;142.766;2023-04-24T03:56:26;2.17;;;1.75;;
63699;SDS011;49845;47.130;142.766;2023-04-24T03:58:57;7.43;;;1.67;;
63699;SDS011;49845;47.130;142.766;2023-04-24T04:01:32;3.60;;;1.67;;
63699;SDS011;49845;47.130;142.766;2023-04-24T04:04:31;7.70;;;1.67;;
63699;SDS011;49845;47.130;142.766;2023-04-24T04:07:17;2.67;;;1.60;;
63699;SDS011;49845;47.130;142.766;2023-04-24T04:09:49;6.57;;;1.67;;
63699;SDS011;49845;47.130;142.766;2023-04-24T04:12:20;2.75;;;1.38;;
63699;SDS011;49845;47.130;142.766;2023-04-24T04:14:50;6.13;;;1.52;;
63699;SDS011;49845;47.130;142.766;2023-04-24T04:17:21;7.00;;;1.77;;
63699;SDS011;49845;47.130;142.766;2023-04-24T04:19:51;1.55;;;1.20;;
63699;SDS011;49845;47.130;142.766;2023-04-24T04:22:22;1.27;;;1.02;;
63699;SDS011;49845;47.130;142.766;2023-04-24T04:24:54;2.90;;;1.30;;
63699;SDS011;49845;47.130;142.766;2023-04-24T04:27:25;8.07;;;1.50;;
63699;SDS011;49845;47.130;142.766;2023-04-24T04:29:56;5.70;;;1.67;;
63699;SDS011;49845;47.130;142.766;2023-04-24T04:32:28;2.97;;;1.30;;
63699;SDS011;49845;47.130;142.766;2023-04-24T04:35:00;4.70;;;1.50;;
63699;SDS011;49845;47.130;142.766;2023-04-24T04:37:31;4.05;;;1.38;;
63699;SDS011;49845;47.130;142.766;2023-04-24T04:40:04;3.22;;;1.10;;
63699;SDS011;49845;47.130;142.766;2023-04-24T04:42:38;4.32;;;1.60;;
63699;SDS011;49845;47.130;142.766;2023-04-24T04:45:10;3.92;;;1.33;;
63699;SDS011;49845;47.130;142.766;2023-04-24T04:47:44;2.80;;;1.17;;
63699;SDS011;49845;47.130;142.766;2023-04-24T04:50:14;5.28;;;1.10;;
63699;SDS011;49845;47.130;142.766;2023-04-24T04:52:46;1.80;;;1.38;;
63699;SDS011;49845;47.130;142.766;2023-04-24T04:55:18;2.42;;;1.08;;
63699;SDS011;49845;47.130;142.766;2023-04-24T04:57:49;1.85;;;1.20;;
63699;SDS011;49845;47.130;142.766;2023-04-24T05:00:20;2.45;;;1.40;;
63699;SDS011;49845;47.130;142.766;2023-04-24T05:02:52;7.25;;;1.52;;
63699;SDS011;49845;47.130;142.766;2023-04-24T05:05:38;3.88;;;1.52;;
63699;SDS011;49845;47.130;142.766;2023-04-24T05:08:09;3.10;;;1.40;;
63699;SDS011;49845;47.130;142.766;2023-04-24T05:10:54;1.85;;;1.17;;
63699;SDS011;49845;47.130;142.766;2023-04-24T05:13:25;2.55;;;1.30;;
63699;SDS011;49845;47.130;142.766;2023-04-24T05:16:06;4.15;;;1.50;;
63699;SDS011;49845;47.130;142.766;2023-04-24T05:18:39;3.47;;;1.20;;
63699;SDS011;49845;47.130;142.766;2023-04-24T05:21:11;7.38;;;1.42;;
63699;SDS011;49845;47.130;142.766;2023-04-24T05:23:42;4.80;;;1.40;;
63699;SDS011;49845;47.130;142.766;2023-04-24T05:26:15;3.67;;;1.20;;
63699;SDS011;49845;47.130;142.766;2023-04-24T05:28:46;2.20;;;1.00;;
63699;SDS011;49845;47.130;142.766;2023-04-24T05:31:16;2.08;;;0.90;;
63699;SDS011;49845;47.130;142.766;2023-04-24T05:33:47;2.55;;;1.27;;
63699;SDS011;49845;47.130;142.766;2023-04-24T05:36:17;5.30;;;1.40;;
63699;SDS011;49845;47.130;142.766;2023-04-24T05:38:48;2.88;;;1.20;;
63699;SDS011;49845;47.130;142.766;2023-04-24T05:41:21;3.13;;;1.25;;
63699;SDS011;49845;47.130;142.766;2023-04-24T05:43:51;2.15;;;1.20;;
63699;SDS011;49845;47.130;142.766;2023-04-24T05:46:22;2.78;;;1.40;;
63699;SDS011;49845;47.130;142.766;2023-04-24T05:48:53;1.45;;;1.33;;
63699;SDS011;49845;47.130;142.766;2023-04-24T05:51:23;3.10;;;1.48;;
63699;SDS011;49845;47.130;142.766;2023-04-24T05:53:54;1.67;;;1.30;;
63699;SDS011;49845;47.130;142.766;2023-04-24T05:56:27;3.38;;;1.80;;
63699;SDS011;49845;47.130;142.766;2023-04-24T05:58:58;1.40;;;1.15;;
63699;SDS011;49845;47.130;142.766;2023-04-24T06:01:29;1.40;;;1.30;;
63699;SDS011;49845;47.130;142.766;2023-04-24T06:04:00;1.60;;;1.25;;
63699;SDS011;49845;47.130;142.766;2023-04-24T06:06:31;10.93;;;1.40;;
63699;SDS011;49845;47.130;142.766;2023-04-24T06:09:02;1.60;;;1.40;;
63699;SDS011;49845;47.130;142.766;2023-04-24T06:11:34;3.25;;;1.55;;
63699;SDS011;49845;47.130;142.766;2023-04-24T06:14:05;3.80;;;1.40;;
63699;SDS011;49845;47.130;142.766;2023-04-24T06:16:37;3.25;;;1.48;;
63699;SDS011;49845;47.130;142.766;2023-04-24T06:19:08;2.45;;;1.10;;
63699;SDS011;49845;47.130;142.766;2023-04-24T06:21:39;2.22;;;1.40;;
63699;SDS011;49845;47.130;142.766;2023-04-24T06:24:10;6.40;;;1.23;;
63699;SDS011;49845;47.130;142.766;2023-04-24T06:26:45;3.45;;;1.30;;
63699;SDS011;49845;47.130;142.766;2023-04-24T06:29:15;1.65;;;1.30;;
63699;SDS011;49845;47.130;142.766;2023-04-24T06:31:47;1.83;;;1.20;;
63699;SDS011;49845;47.130;142.766;2023-04-24T06:34:18;3.03;;;1.50;;
63699;SDS011;49845;47.130;142.766;2023-04-24T06:36:48;4.82;;;1.60;;
63699;SDS011;49845;47.130;142.766;2023-04-24T06:39:19;2.38;;;1.20;;
63699;SDS011;49845;47.130;142.766;2023-04-24T06:41:51;1.85;;;1.38;;
63699;SDS011;49845;47.130;142.766;2023-04-24T06:44:21;2.97;;;1.20;;
63699;SDS011;49845;47.130;142.766;2023-04-24T06:46:52;1.52;;;1.00;;
63699;SDS011;49845;47.130;142.766;2023-04-24T06:49:23;7.30;;;1.40;;
63699;SDS011;49845;47.130;142.766;2023-04-24T06:51:53;5.00;;;2.00;;
63699;SDS011;49845;47.130;142.766;2023-04-24T06:54:25;1.40;;;1.10;;
63699;SDS011;49845;47.130;142.766;2023-04-24T06:56:57;4.50;;;1.38;;
63699;SDS011;49845;47.130;142.766;2023-04-24T06:59:28;5.28;;;1.42;;
63699;SDS011;49845;47.130;142.766;2023-04-24T07:01:59;3.42;;;1.30;;
63699;SDS011;49845;47.130;142.766;2023-04-24T07:04:29;2.38;;;1.60;;
63699;SDS011;49845;47.130;142.766;2023-04-24T07:07:00;2.47;;;1.50;;
63699;SDS011;49845;47.130;142.766;2023-04-24T07:09:33;4.22;;;1.23;;
63699;SDS011;49845;47.130;142.766;2023-04-24T07:12:08;5.78;;;1.38;;
63699;SDS011;49845;47.130;142.766;2023-04-24T07:14:38;2.38;;;1.20;;
63699;SDS011;49845;47.130;142.766;2023-04-24T07:17:09;2.33;;;1.30;;
63699;SDS011;49845;47.130;142.766;2023-04-24T07:19:40;3.63;;;1.40;;
63699;SDS011;49845;47.130;142.766;2023-04-24T07:22:12;3.28;;;1.23;;
63699;SDS011;49845;47.130;142.766;2023-04-24T07:24:44;9.63;;;1.40;;
63699;SDS011;49845;47.130;142.766;2023-04-24T07:27:16;1.77;;;1.15;;
63699;SDS011;49845;47.130;142.766;2023-04-24T07:29:46;1.40;;;1.25;;
63699;SDS011;49845;47.130;142.766;2023-04-24T07:32:17;1.38;;;1.00;;
63699;SDS011;49845;47.130;142.766;2023-04-24T07:34:47;1.52;;;1.30;;
63699;SDS011;49845;47.130;142.766;2023-04-24T07:37:18;3.15;;;1.80;;
63699;SDS011;49845;47.130;142.766;2023-04-24T07:39:49;1.45;;;1.30;;
63699;SDS011;49845;47.130;142.766;2023-04-24T07:42:25;3.75;;;1.40;;
63699;SDS011;49845;47.130;142.766;2023-04-24T07:44:58;2.05;;;1.27;;
63699;SDS011;49845;47.130;142.766;2023-04-24T07:47:30;1.65;;;1.30;;
63699;SDS011;49845;47.130;142.766;2023-04-24T07:50:02;5.07;;;1.58;;
63699;SDS011;49845;47.130;142.766;2023-04-24T07:52:34;1.83;;;1.40;;
63699;SDS011;49845;47.130;142.766;2023-04-24T07:55:06;5.18;;;1.40;;
63699;SDS011;49845;47.130;142.766;2023-04-24T07:57:39;2.28;;;1.20;;
63699;SDS011;49845;47.130;142.766;2023-04-24T08:00:11;8.30;;;1.90;;
63699;SDS011;49845;47.130;142.766;2023-04-24T08:02:43;6.30;;;1.55;;
63699;SDS011;49845;47.130;142.766;2023-04-24T08:05:15;11.05;;;2.03;;
63699;SDS011;49845;47.130;142.766;2023-04-24T08:07:48;2.75;;;1.30;;
63699;SDS011;49845;47.130;142.766;2023-04-24T08:10:19;1.65;;;1.30;;
63699;SDS011;49845;47.130;142.766;2023-04-24T08:12:54;7.90;;;2.28;;
63699;SDS011;49845;47.130;142.766;2023-04-24T08:15:27;3.10;;;1.67;;
63699;SDS011;49845;47.130;142.766;2023-04-24T08:17:58;2.53;;;1.77;;
63699;SDS011;49845;47.130;142.766;2023-04-24T08:20:31;4.65;;;1.77;;
63699;SDS011;49845;47.130;142.766;2023-04-24T08:23:03;3.20;;;1.73;;
63699;SDS011;49845;47.130;142.766;2023-04-24T08:25:35;2.70;;;1.92;;
63699;SDS011;49845;47.130;142.766;2023-04-24T08:28:08;2.28;;;1.40;;
63699;SDS011;49845;47.130;142.766;2023-04-24T08:30:43;5.70;;;1.90;;
63699;SDS011;49845;47.130;142.766;2023-04-24T08:33:15;4.25;;;2.22;;
63699;SDS011;49845;47.130;142.766;2023-04-24T08:35:46;4.32;;;1.70;;
63699;SDS011;49845;47.130;142.766;2023-04-24T08:38:18;7.75;;;2.40;;
63699;SDS011;49845;47.130;142.766;2023-04-24T08:40:50;1.98;;;1.52;;
63699;SDS011;49845;47.130;142.766;2023-04-24T08:43:24;4.30;;;2.00;;
63699;SDS011;49845;47.130;142.766;2023-04-24T08:45:56;3.08;;;1.30;;
63699;SDS011;49845;47.130;142.766;2023-04-24T08:48:34;2.33;;;1.40;;
63699;SDS011;49845;47.130;142.766;2023-04-24T08:51:06;6.38;;;1.98;;
63699;SDS011;49845;47.130;142.766;2023-04-24T08:53:39;5.18;;;2.05;;
63699;SDS011;49845;47.130;142.766;2023-04-24T08:56:11;1.58;;;1.40;;
63699;SDS011;49845;47.130;142.766;2023-04-24T08:58:45;4.30;;;1.88;;
63699;SDS011;49845;47.130;142.766;2023-04-24T09:01:18;2.50;;;1.50;;
63699;SDS011;49845;47.130;142.766;2023-04-24T09:03:50;4.50;;;1.48;;
63699;SDS011;49845;47.130;142.766;2023-04-24T09:06:23;2.97;;;1.30;;
63699;SDS011;49845;47.130;142.766;2023-04-24T09:08:56;2.42;;;1.40;;
63699;SDS011;49845;47.130;142.766;2023-04-24T09:11:31;2.90;;;1.70;;
63699;SDS011;49845;47.130;142.766;2023-04-24T09:14:05;2.17;;;1.58;;
63699;SDS011;49845;47.130;142.766;2023-04-24T09:16:39;2.13;;;1.40;;
63699;SDS011;49845;47.130;142.766;2023-04-24T09:19:12;2.95;;;1.90;;
63699;SDS011;49845;47.130;142.766;2023-04-24T09:21:45;3.97;;;1.65;;
63699;SDS011;49845;47.130;142.766;2023-04-24T09:24:17;8.93;;;4.90;;
63699;SDS011;49845;47.130;142.766;2023-04-24T09:26:55;3.72;;;2.20;;
63699;SDS011;49845;47.130;142.766;2023-04-24T09:29:31;3.03;;;1.67;;
63699;SDS011;49845;47.130;142.766;2023-04-24T09:32:17;3.55;;;2.33;;
63699;SDS011;49845;47.130;142.766;2023-04-24T09:35:04;4.20;;;3.10;;
63699;SDS011;49845;47.130;142.766;2023-04-24T09:37:38;5.53;;;2.40;;
63699;SDS011;49845;47.130;142.766;2023-04-24T09:40:12;5.05;;;2.53;;
63699;SDS011;49845;47.130;142.766;2023-04-24T09:42:45;5.63;;;2.13;;
63699;SDS011;49845;47.130;142.766;2023-04-24T09:45:23;4.00;;;1.95;;
63699;SDS011;49845;47.130;142.766;2023-04-24T09:47:59;5.65;;;2.40;;
63699;SDS011;49845;47.130;142.766;2023-04-24T09:50:30;3.47;;;1.73;;
63699;SDS011;49845;47.130;142.766;2023-04-24T09:53:03;3.50;;;1.60;;
63699;SDS011;49845;47.130;142.766;2023-04-24T09:55:39;5.00;;;1.85;;
63699;SDS011;49845;47.130;142.766;2023-04-24T09:58:16;3.10;;;1.77;;
63699;SDS011;49845;47.130;142.766;2023-04-24T10:00:50;3.05;;;2.00;;
63699;SDS011;49845;47.130;142.766;2023-04-24T10:03:25;7.40;;;1.60;;
63699;SDS011;49845;47.130;142.766;2023-04-24T10:06:00;4.53;;;2.08;;
63699;SDS011;49845;47.130;142.766;2023-04-24T10:08:36;7.78;;;1.85;;
63699;SDS011;49845;47.130;142.766;2023-04-24T10:11:08;2.50;;;1.60;;
63699;SDS011;49845;47.130;142.766;2023-04-24T10:13:41;3.13;;;1.70;;
63699;SDS011;49845;47.130;142.766;2023-04-24T10:16:15;4.13;;;1.98;;
63699;SDS011;49845;47.130;142.766;2023-04-24T10:18:47;3.45;;;2.00;;
63699;SDS011;49845;47.130;142.766;2023-04-24T10:21:19;3.85;;;1.70;;
63699;SDS011;49845;47.130;142.766;2023-04-24T10:23:51;3.22;;;2.03;;
63699;SDS011;49845;47.130;142.766;2023-04-24T10:26:24;3.38;;;2.03;;
63699;SDS011;49845;47.130;142.766;2023-04-24T10:28:57;3.78;;;2.20;;
63699;SDS011;49845;47.130;142.766;2023-04-24T10:31:32;5.15;;;2.05;;
63699;SDS011;49845;47.130;142.766;2023-04-24T10:34:05;2.95;;;2.10;;
63699;SDS011;49845;47.130;142.766;2023-04-24T10:36:40;6.88;;;1.95;;
63699;SDS011;49845;47.130;142.766;2023-04-24T10:39:24;4.97;;;2.60;;
63699;SDS011;49845;47.130;142.766;2023-04-24T10:41:57;4.55;;;2.10;;
63699;SDS011;49845;47.130;142.766;2023-04-24T10:44:36;5.45;;;2.83;;
63699;SDS011;49845;47.130;142.766;2023-04-24T10:47:14;7.85;;;2.88;;
63699;SDS011;49845;47.130;142.766;2023-04-24T10:49:45;6.72;;;3.42;;
63699;SDS011;49845;47.130;142.766;2023-04-24T10:52:20;4.78;;;2.85;;
63699;SDS011;49845;47.130;142.766;2023-04-24T10:54:52;5.45;;;2.80;;
63699;SDS011;49845;47.130;142.766;2023-04-24T10:57:26;4.43;;;2.22;;
63699;SDS011;49845;47.130;142.766;2023-04-24T11:00:15;3.63;;;2.25;;
63699;SDS011;49845;47.130;142.766;2023-04-24T11:02:53;9.95;;;2.95;;
63699;SDS011;49845;47.130;142.766;2023-04-24T11:08:23;8.85;;;2.90;;
63699;SDS011;49845;47.130;142.766;2023-04-24T11:10:57;5.95;;;3.50;;
63699;SDS011;49845;47.130;142.766;2023-04-24T11:16:35;6.38;;;2.80;;
63699;SDS011;49845;47.130;142.766;2023-04-24T11:19:21;6.53;;;3.17;;
63699;SDS011;49845;47.130;142.766;2023-04-24T11:21:55;10.05;;;3.60;;
63699;SDS011;49845;47.130;142.766;2023-04-24T11:24:29;9.27;;;3.55;;
63699;SDS011;49845;47.130;142.766;2023-04-24T11:27:06;10.32;;;3.70;;
63699;SDS011;49845;47.130;142.766;2023-04-24T11:29:42;6.40;;;3.53;;
63699;SDS011;49845;47.130;142.766;2023-04-24T11:32:19;24.27;;;14.32;;
63699;SDS011;49845;47.130;142.766;2023-04-24T11:34:57;11.48;;;4.28;;
63699;SDS011;49845;47.130;142.766;2023-04-24T11:37:33;14.90;;;6.28;;
63699;SDS011;49845;47.130;142.766;2023-04-24T11:40:06;5.75;;;3.40;;
63699;SDS011;49845;47.130;142.766;2023-04-24T11:42:39;7.88;;;3.28;;
63699;SDS011;49845;47.130;142.766;2023-04-24T11:45:11;5.68;;;2.90;;
63699;SDS011;49845;47.130;142.766;2023-04-24T11:47:45;5.22;;;3.00;;
63699;SDS011;49845;47.130;142.766;2023-04-24T11:50:21;7.45;;;2.72;;
63699;SDS011;49845;47.130;142.766;2023-04-24T11:52:53;5.07;;;2.75;;
63699;SDS011;49845;47.130;142.766;2023-04-24T11:55:26;6.40;;;2.60;;
63699;SDS011;49845;47.130;142.766;2023-04-24T11:57:59;9.15;;;4.43;;
63699;SDS011;49845;47.130;142.766;2023-04-24T12:00:31;9.88;;;7.00;;
63699;SDS011;49845;47.130;142.766;2023-04-24T12:03:04;12.75;;;9.43;;
63699;SDS011;49845;47.130;142.766;2023-04-24T12:05:39;13.80;;;8.98;;
63699;SDS011;49845;47.130;142.766;2023-04-24T12:08:12;4.82;;;2.90;;
63699;SDS011;49845;47.130;142.766;2023-04-24T12:10:58;5.78;;;2.42;;
63699;SDS011;49845;47.130;142.766;2023-04-24T12:13:31;5.82;;;3.25;;
63699;SDS011;49845;47.130;142.766;2023-04-24T12:16:03;7.28;;;3.35;;
63699;SDS011;49845;47.130;142.766;2023-04-24T12:18:40;7.93;;;2.50;;
63699;SDS011;49845;47.130;142.766;2023-04-24T12:21:18;7.28;;;3.67;;
63699;SDS011;49845;47.130;142.766;2023-04-24T12:23:53;6.32;;;2.80;;
63699;SDS011;49845;47.130;142.766;2023-04-24T12:26:26;4.80;;;2.40;;
63699;SDS011;49845;47.130;142.766;2023-04-24T12:29:01;9.43;;;3.25;;
63699;SDS011;49845;47.130;142.766;2023-04-24T12:31:34;7.30;;;2.40;;
63699;SDS011;49845;47.130;142.766;2023-04-24T12:34:16;7.25;;;2.90;;
63699;SDS011;49845;47.130;142.766;2023-04-24T12:36:51;4.75;;;2.70;;
63699;SDS011;49845;47.130;142.766;2023-04-24T12:39:22;7.15;;;3.30;;
63699;SDS011;49845;47.130;142.766;2023-04-24T12:41:57;7.75;;;2.92;;
63699;SDS011;49845;47.130;142.766;2023-04-24T12:44:30;12.57;;;3.97;;
63699;SDS011;49845;47.130;142.766;2023-04-24T12:47:02;10.25;;;4.07;;
63699;SDS011;49845;47.130;142.766;2023-04-24T12:49:34;7.22;;;3.55;;
63699;SDS011;49845;47.130;142.766;2023-04-24T12:52:08;8.65;;;4.00;;
63699;SDS011;49845;47.130;142.766;2023-04-24T12:54:40;5.40;;;2.58;;
63699;SDS011;49845;47.130;142.766;2023-04-24T12:57:11;4.90;;;2.80;;
63699;SDS011;49845;47.130;142.766;2023-04-24T12:59:43;8.38;;;3.05;;
63699;SDS011;49845;47.130;142.766;2023-04-24T13:02:14;5.85;;;2.65;;
63699;SDS011;49845;47.130;142.766;2023-04-24T13:04:46;7.28;;;2.40;;
63699;SDS011;49845;47.130;142.766;2023-04-24T13:07:20;6.45;;;2.28;;
63699;SDS011;49845;47.130;142.766;2023-04-24T13:09:52;6.18;;;2.40;;
63699;SDS011;49845;47.130;142.766;2023-04-24T13:12:25;5.05;;;2.15;;
63699;SDS011;49845;47.130;142.766;2023-04-24T13:17:50;9.80;;;2.40;;
63699;SDS011;49845;47.130;142.766;2023-04-24T13:20:26;5.70;;;2.63;;
63699;SDS011;49845;47.130;142.766;2023-04-24T13:23:01;6.82;;;2.20;;
63699;SDS011;49845;47.130;142.766;2023-04-24T13:25:36;6.47;;;2.17;;
63699;SDS011;49845;47.130;142.766;2023-04-24T13:28:09;4.95;;;2.40;;
63699;SDS011;49845;47.130;142.766;2023-04-24T13:30:42;8.35;;;2.30;;
63699;SDS011;49845;47.130;142.766;2023-04-24T13:33:14;8.77;;;2.38;;
63699;SDS011;49845;47.130;142.766;2023-04-24T13:35:48;4.85;;;2.35;;
63699;SDS011;49845;47.130;142.766;2023-04-24T13:38:23;6.95;;;2.15;;
63699;SDS011;49845;47.130;142.766;2023-04-24T13:40:57;5.97;;;2.97;;
63699;SDS011;49845;47.130;142.766;2023-04-24T13:43:37;8.20;;;3.20;;
63699;SDS011;49845;47.130;142.766;2023-04-24T13:46:10;6.63;;;3.42;;
63699;SDS011;49845;47.130;142.766;2023-04-24T13:48:43;11.55;;;4.28;;
63699;SDS011;49845;47.130;142.766;2023-04-24T13:51:14;6.70;;;2.33;;
63699;SDS011;49845;47.130;142.766;2023-04-24T13:53:46;5.47;;;2.50;;
63699;SDS011;49845;47.130;142.766;2023-04-24T13:56:22;12.00;;;3.83;;
63699;SDS011;49845;47.130;142.766;2023-04-24T13:58:53;11.73;;;3.47;;
63699;SDS011;49845;47.130;142.766;2023-04-24T14:01:23;11.77;;;2.85;;
63699;SDS011;49845;47.130;142.766;2023-04-24T14:03:58;11.05;;;3.50;;
63699;SDS011;49845;47.130;142.766;2023-04-24T14:06:37;6.10;;;2.97;;
63699;SDS011;49845;47.130;142.766;2023-04-24T14:13:04;9.52;;;3.15;;
63699;SDS011;49845;47.130;142.766;2023-04-24T14:15:42;6.95;;;3.35;;
63699;SDS011;49845;47.130;142.766;2023-04-24T14:18:37;7.30;;;2.53;;
63699;SDS011;49845;47.130;142.766;2023-04-24T14:21:39;10.48;;;3.03;;
63699;SDS011;49845;47.130;142.766;2023-04-24T14:24:10;9.63;;;3.20;;
63699;SDS011;49845;47.130;142.766;2023-04-24T14:26:53;9.02;;;3.53;;
63699;SDS011;49845;47.130;142.766;2023-04-24T14:29:29;6.22;;;2.70;;
63699;SDS011;49845;47.130;142.766;2023-04-24T14:32:05;7.15;;;3.33;;
63699;SDS011;49845;47.130;142.766;2023-04-24T14:34:39;8.93;;;3.17;;
63699;SDS011;49845;47.130;142.766;2023-04-24T14:37:10;9.27;;;3.13;;
63699;SDS011;49845;47.130;142.766;2023-04-24T14:39:43;8.35;;;3.35;;
63699;SDS011;49845;47.130;142.766;2023-04-24T14:42:44;11.13;;;4.70;;
63699;SDS011;49845;47.130;142.766;2023-04-24T14:45:15;10.63;;;4.30;;
63699;SDS011;49845;47.130;142.766;2023-04-24T14:47:46;7.47;;;3.42;;
63699;SDS011;49845;47.130;142.766;2023-04-24T14:50:17;12.70;;;4.65;;
63699;SDS011;49845;47.130;142.766;2023-04-24T14:52:50;9.18;;;3.90;;
63699;SDS011;49845;47.130;142.766;2023-04-24T14:55:29;8.45;;;3.38;;
63699;SDS011;49845;47.130;142.766;2023-04-24T14:58:03;11.88;;;4.18;;
63699;SDS011;49845;47.130;142.766;2023-04-24T15:00:35;9.18;;;5.30;;
63699;SDS011;49845;47.130;142.766;2023-04-24T15:03:12;9.32;;;3.28;;
63699;SDS011;49845;47.130;142.766;2023-04-24T15:05:46;12.82;;;3.42;;
63699;SDS011;49845;47.130;142.766;2023-04-24T15:08:17;7.68;;;3.67;;